Wheeler, Indiana
Current Conditions -  °F | °C
As of 7:56 PM on Sunday 23 Nov 2014 (Local Time) from KVPZ Reporting Station
Light Rain Light Rain  
Wind Chill: 50°   Ceiling: 300
Heat Index: 50°   Visibility: 4mi
Dew Point: 50°   Wind: 8mph
Humidity: 100%   Direction: 100°E
Pressure: 29.28"   Gusts: NA
Location:  41.51°N, 87.18°W
Report Text: KVPZ 240156Z AUTO 10007KT 4SM -RA BR OVC003 10/10 A2928 RMK AO2 SLP917 P0012 T01000100 TSNO
Loading
Personal Weather Stations






























Interactive Weather Map New forecast layout! Learn more

10-Day Weather Forecast

Advertisements
Track Severe Weather on mobile